Aérodrome :







RETROUVEZ-NOUS SUR...

 
LOGIN :

S'inscrire | Disclaimer

   EN    FR    IT 

 









Légende :    VFR   VFR Marginal   IFR   IFR Intensif   IFR Très Intensif
Visi : 
Plafond : 
>= 8 km
>= 3000ft
5 à 8 km
1000 à 3000 ft
1500m à 5 km
500 à 1000 ft
800 à 1500m
200 à 500 ft
< 800m
< 200 ft
Symboles :   Orages  Brouillard  Fortes neiges  Fortes précipitations  Vent > 20 kt






- Altitude de l'aérodrome : 22 ft
- Code IATA : YDP


CYDP - Nain

DERNIER METAR :
  • 281300Z 00000KT 15SM FEW090 BKN110 M19/M24 A2978 RMK AS1AC5 SLP086

METARs EXPIRÉS :
  • 281200Z VRB02KT 15SM SCT100 BKN210 M19/M24 A2979 RMK AC4CS3 SLP089
  • 281100Z 00000KT 15SM FEW130 SCT210 M20/M25 A2979 RMK AC1CI2 SLP092

TAF TAF CYDP
Valide du 28 à 14h jusqu'au 29 à 00h UTC


281338Z 2814/2824 28005KT P6SM FEW060 BKN120
FM282200 28008KT P6SM BKN040 OVC120
TEMPO 2822/2824 21/2SM -SN OVC020 RMK NXT FCST BY 282000Z



MET'MAP, la Météo Aéronautique d'un coup d'oeil ! - Copyright ORBIFLY Décembre 2007 - Disclaimer

ORBIFLY MET'MAP TEAM :

Programmation & Développement : Alexandra Zaïnal
Sur une idée originale de : Baudouin d'Aumeries
Assistance à la programmation : Marc-Olivier Méhu
Soutien technique & logistique : Manuel Goepfert

Contact : metmap@orbifly.com




SOURCES & CREDITS :

   NOAA